sensor_id;sensor_type;location;lat;lon;timestamp;pressure;altitude;pressure_sealevel;temperature;humidity
50702;BME280;36670;50.094;8.496;2022-09-01T00:01:56;100691.78;;;18.74;51.55
50702;BME280;36670;50.094;8.496;2022-09-01T00:04:24;100685.41;;;18.69;51.31
50702;BME280;36670;50.094;8.496;2022-09-01T00:06:53;100688.56;;;18.62;51.83
50702;BME280;36670;50.094;8.496;2022-09-01T00:09:20;100690.84;;;18.60;52.37
50702;BME280;36670;50.094;8.496;2022-09-01T00:11:50;100685.50;;;18.64;51.31
50702;BME280;36670;50.094;8.496;2022-09-01T00:14:22;100691.66;;;18.60;51.55
50702;BME280;36670;50.094;8.496;2022-09-01T00:16:48;100688.72;;;18.47;51.99
50702;BME280;36670;50.094;8.496;2022-09-01T00:19:13;100692.13;;;18.43;52.07
50702;BME280;36670;50.094;8.496;2022-09-01T00:21:42;100692.47;;;18.37;52.37
50702;BME280;36670;50.094;8.496;2022-09-01T00:24:07;100699.47;;;18.34;52.63
50702;BME280;36670;50.094;8.496;2022-09-01T00:26:34;100693.13;;;18.29;52.81
50702;BME280;36670;50.094;8.496;2022-09-01T00:28:59;100694.97;;;18.38;52.68
50702;BME280;36670;50.094;8.496;2022-09-01T00:31:26;100693.63;;;18.36;52.23
50702;BME280;36670;50.094;8.496;2022-09-01T00:33:52;100688.06;;;18.31;52.77
50702;BME280;36670;50.094;8.496;2022-09-01T00:36:18;100674.63;;;18.33;52.48
50702;BME280;36670;50.094;8.496;2022-09-01T00:38:44;100694.00;;;18.24;53.14
50702;BME280;36670;50.094;8.496;2022-09-01T00:41:10;100675.47;;;18.33;52.08
50702;BME280;36670;50.094;8.496;2022-09-01T00:46:09;100683.47;;;18.16;52.71
50702;BME280;36670;50.094;8.496;2022-09-01T00:48:36;100685.78;;;18.08;52.67
50702;BME280;36670;50.094;8.496;2022-09-01T00:51:03;100686.38;;;18.05;53.36
50702;BME280;36670;50.094;8.496;2022-09-01T00:53:29;100680.72;;;18.11;53.06
50702;BME280;36670;50.094;8.496;2022-09-01T00:55:55;100681.91;;;18.04;53.47
50702;BME280;36670;50.094;8.496;2022-09-01T00:58:20;100680.22;;;18.03;53.52
50702;BME280;36670;50.094;8.496;2022-09-01T01:00:47;100679.72;;;18.01;53.37
50702;BME280;36670;50.094;8.496;2022-09-01T01:03:14;100681.31;;;18.07;53.20
50702;BME280;36670;50.094;8.496;2022-09-01T01:05:42;100680.81;;;18.00;54.08
50702;BME280;36670;50.094;8.496;2022-09-01T01:08:11;100676.91;;;18.01;53.24
50702;BME280;36670;50.094;8.496;2022-09-01T01:10:41;100674.91;;;18.07;53.26
50702;BME280;36670;50.094;8.496;2022-09-01T01:13:12;100671.22;;;18.12;52.91
50702;BME280;36670;50.094;8.496;2022-09-01T01:15:39;100672.59;;;18.14;53.45
50702;BME280;36670;50.094;8.496;2022-09-01T01:18:09;100671.03;;;18.03;53.51
50702;BME280;36670;50.094;8.496;2022-09-01T01:20:35;100666.47;;;18.12;52.94
50702;BME280;36670;50.094;8.496;2022-09-01T01:23:35;100669.06;;;18.03;53.62
50702;BME280;36670;50.094;8.496;2022-09-01T01:26:06;100663.88;;;17.91;54.08
50702;BME280;36670;50.094;8.496;2022-09-01T01:28:36;100666.84;;;18.00;53.80
50702;BME280;36670;50.094;8.496;2022-09-01T01:31:03;100662.47;;;17.94;53.65
50702;BME280;36670;50.094;8.496;2022-09-01T01:33:33;100664.63;;;18.02;53.73
50702;BME280;36670;50.094;8.496;2022-09-01T01:36:03;100660.78;;;17.93;54.37
50702;BME280;36670;50.094;8.496;2022-09-01T01:38:32;100661.88;;;17.97;53.83
50702;BME280;36670;50.094;8.496;2022-09-01T01:41:00;100663.03;;;17.91;54.04
50702;BME280;36670;50.094;8.496;2022-09-01T01:43:25;100663.06;;;17.86;54.46
50702;BME280;36670;50.094;8.496;2022-09-01T01:45:54;100663.03;;;17.91;54.54
50702;BME280;36670;50.094;8.496;2022-09-01T01:48:23;100659.47;;;17.80;54.53
50702;BME280;36670;50.094;8.496;2022-09-01T01:50:50;100668.59;;;17.91;54.81
50702;BME280;36670;50.094;8.496;2022-09-01T01:53:17;100661.34;;;17.90;54.17
50702;BME280;36670;50.094;8.496;2022-09-01T01:55:44;100667.59;;;17.77;55.03
50702;BME280;36670;50.094;8.496;2022-09-01T01:58:12;100661.72;;;17.78;55.54
50702;BME280;36670;50.094;8.496;2022-09-01T02:00:39;100667.28;;;17.78;55.25
50702;BME280;36670;50.094;8.496;2022-09-01T02:03:08;100659.78;;;17.79;55.12
50702;BME280;36670;50.094;8.496;2022-09-01T02:05:35;100673.97;;;17.82;55.06
50702;BME280;36670;50.094;8.496;2022-09-01T02:08:05;100673.72;;;17.79;55.54
50702;BME280;36670;50.094;8.496;2022-09-01T02:10:44;100662.56;;;17.79;55.59
50702;BME280;36670;50.094;8.496;2022-09-01T02:13:13;100668.41;;;17.77;55.71
50702;BME280;36670;50.094;8.496;2022-09-01T02:16:02;100663.91;;;17.81;55.89
50702;BME280;36670;50.094;8.496;2022-09-01T02:18:34;100655.53;;;17.81;55.64
50702;BME280;36670;50.094;8.496;2022-09-01T02:21:02;100657.84;;;17.74;55.63
50702;BME280;36670;50.094;8.496;2022-09-01T02:23:28;100655.91;;;17.74;55.45
50702;BME280;36670;50.094;8.496;2022-09-01T02:25:58;100657.84;;;17.74;55.73
50702;BME280;36670;50.094;8.496;2022-09-01T02:28:28;100661.97;;;17.82;55.83
50702;BME280;36670;50.094;8.496;2022-09-01T02:30:57;100654.50;;;17.72;56.22
50702;BME280;36670;50.094;8.496;2022-09-01T02:33:24;100655.38;;;17.67;56.43
50702;BME280;36670;50.094;8.496;2022-09-01T02:35:53;100654.25;;;17.68;56.03
50702;BME280;36670;50.094;8.496;2022-09-01T02:38:20;100651.50;;;17.63;56.18
50702;BME280;36670;50.094;8.496;2022-09-01T02:40:51;100651.47;;;17.68;56.71
50702;BME280;36670;50.094;8.496;2022-09-01T02:43:20;100649.78;;;17.67;56.36
50702;BME280;36670;50.094;8.496;2022-09-01T02:45:47;100648.16;;;17.66;56.60
50702;BME280;36670;50.094;8.496;2022-09-01T02:48:18;100647.09;;;17.57;56.73
50702;BME280;36670;50.094;8.496;2022-09-01T02:50:46;100648.22;;;17.56;56.65
50702;BME280;36670;50.094;8.496;2022-09-01T02:53:16;100652.09;;;17.60;56.96
50702;BME280;36670;50.094;8.496;2022-09-01T02:55:42;100650.06;;;17.71;56.47
50702;BME280;36670;50.094;8.496;2022-09-01T02:58:08;100647.06;;;17.62;56.37
50702;BME280;36670;50.094;8.496;2022-09-01T03:00:42;100642.84;;;17.65;56.55
50702;BME280;36670;50.094;8.496;2022-09-01T03:03:08;100648.69;;;17.63;56.67
50702;BME280;36670;50.094;8.496;2022-09-01T03:05:36;100645.69;;;17.60;57.07
50702;BME280;36670;50.094;8.496;2022-09-01T03:08:06;100642.88;;;17.60;56.74
50702;BME280;36670;50.094;8.496;2022-09-01T03:10:38;100638.38;;;17.64;56.71
50702;BME280;36670;50.094;8.496;2022-09-01T03:13:11;100643.97;;;17.64;56.85
50702;BME280;36670;50.094;8.496;2022-09-01T03:15:39;100633.91;;;17.63;56.66
50702;BME280;36670;50.094;8.496;2022-09-01T03:18:06;100633.13;;;17.57;57.02
50702;BME280;36670;50.094;8.496;2022-09-01T03:20:34;100634.53;;;17.54;56.93
50702;BME280;36670;50.094;8.496;2022-09-01T03:23:01;100642.91;;;17.54;57.07
50702;BME280;36670;50.094;8.496;2022-09-01T03:25:29;100636.53;;;17.49;57.13
50702;BME280;36670;50.094;8.496;2022-09-01T03:27:56;100646.81;;;17.53;57.19
50702;BME280;36670;50.094;8.496;2022-09-01T03:30:26;100642.91;;;17.54;56.61
50702;BME280;36670;50.094;8.496;2022-09-01T03:32:55;100644.66;;;17.45;57.81
50702;BME280;36670;50.094;8.496;2022-09-01T03:35:20;100643.00;;;17.44;57.53
50702;BME280;36670;50.094;8.496;2022-09-01T03:37:46;100645.81;;;17.44;57.50
50702;BME280;36670;50.094;8.496;2022-09-01T03:40:12;100645.56;;;17.35;57.36
50702;BME280;36670;50.094;8.496;2022-09-01T03:42:38;100638.56;;;17.38;57.17
50702;BME280;36670;50.094;8.496;2022-09-01T03:45:05;100639.16;;;17.35;58.07
50702;BME280;36670;50.094;8.496;2022-09-01T03:47:38;100637.84;;;17.27;58.16
50702;BME280;36670;50.094;8.496;2022-09-01T03:50:14;100639.59;;;17.08;59.11
50702;BME280;36670;50.094;8.496;2022-09-01T03:52:54;100642.41;;;17.08;58.24
50702;BME280;36670;50.094;8.496;2022-09-01T03:55:27;100634.59;;;17.10;58.56
50702;BME280;36670;50.094;8.496;2022-09-01T03:57:58;100637.44;;;16.99;58.91
50702;BME280;36670;50.094;8.496;2022-09-01T04:00:27;100629.28;;;17.13;58.24
50702;BME280;36670;50.094;8.496;2022-09-01T04:02:57;100633.72;;;17.14;59.07
50702;BME280;36670;50.094;8.496;2022-09-01T04:05:26;100641.00;;;17.10;58.97
50702;BME280;36670;50.094;8.496;2022-09-01T04:07:58;100630.97;;;17.09;58.76
50702;BME280;36670;50.094;8.496;2022-09-01T04:10:26;100636.00;;;17.02;58.71
50702;BME280;36670;50.094;8.496;2022-09-01T04:12:52;100639.59;;;17.08;58.51
50702;BME280;36670;50.094;8.496;2022-09-01T04:15:22;100631.31;;;16.97;58.87
50702;BME280;36670;50.094;8.496;2022-09-01T04:17:47;100642.41;;;17.08;59.10
50702;BME280;36670;50.094;8.496;2022-09-01T04:20:31;100643.28;;;17.03;58.97
50702;BME280;36670;50.094;8.496;2022-09-01T04:23:05;100642.75;;;16.96;59.48
50702;BME280;36670;50.094;8.496;2022-09-01T04:25:38;100643.03;;;16.99;59.00
50702;BME280;36670;50.094;8.496;2022-09-01T04:28:04;100638.31;;;16.89;59.28
50702;BME280;36670;50.094;8.496;2022-09-01T04:30:41;100636.63;;;16.94;59.11
50702;BME280;36670;50.094;8.496;2022-09-01T04:33:07;100643.63;;;16.81;59.54
50702;BME280;36670;50.094;8.496;2022-09-01T04:35:39;100648.97;;;16.77;60.13
50702;BME280;36670;50.094;8.496;2022-09-01T04:38:05;100648.97;;;16.77;60.15
50702;BME280;36670;50.094;8.496;2022-09-01T04:40:37;100653.16;;;16.69;60.06
50702;BME280;36670;50.094;8.496;2022-09-01T04:43:04;100642.88;;;16.65;60.43
50702;BME280;36670;50.094;8.496;2022-09-01T04:45:29;100649.78;;;16.72;60.16
50702;BME280;36670;50.094;8.496;2022-09-01T04:47:56;100642.56;;;16.71;59.89
50702;BME280;36670;50.094;8.496;2022-09-01T04:50:23;100646.19;;;16.67;60.00
50702;BME280;36670;50.094;8.496;2022-09-01T04:52:57;100653.72;;;16.71;60.23
50702;BME280;36670;50.094;8.496;2022-09-01T04:55:23;100653.16;;;16.75;60.35
50702;BME280;36670;50.094;8.496;2022-09-01T04:57:51;100652.56;;;16.83;59.64
50702;BME280;36670;50.094;8.496;2022-09-01T05:00:19;100652.56;;;16.83;60.15
50702;BME280;36670;50.094;8.496;2022-09-01T05:02:54;100648.97;;;16.77;60.05
50702;BME280;36670;50.094;8.496;2022-09-01T05:05:22;100649.22;;;16.76;59.94
50702;BME280;36670;50.094;8.496;2022-09-01T05:07:48;100650.94;;;16.71;60.17
50702;BME280;36670;50.094;8.496;2022-09-01T05:10:19;100652.56;;;16.78;59.77
50702;BME280;36670;50.094;8.496;2022-09-01T05:12:45;100653.94;;;16.85;59.60
50702;BME280;36670;50.094;8.496;2022-09-01T05:15:13;100652.59;;;16.72;60.24
50702;BME280;36670;50.094;8.496;2022-09-01T05:17:39;100657.31;;;16.77;59.86
50702;BME280;36670;50.094;8.496;2022-09-01T05:20:06;100655.38;;;16.72;60.50
50702;BME280;36670;50.094;8.496;2022-09-01T05:22:33;100653.97;;;16.70;60.27
50702;BME280;36670;50.094;8.496;2022-09-01T05:24:59;100654.84;;;16.65;60.30
50702;BME280;36670;50.094;8.496;2022-09-01T05:27:36;100658.50;;;16.55;60.38
50702;BME280;36670;50.094;8.496;2022-09-01T05:30:04;100663.22;;;16.60;60.90
50702;BME280;36670;50.094;8.496;2022-09-01T05:32:36;100663.22;;;16.60;60.57
50702;BME280;36670;50.094;8.496;2022-09-01T05:35:03;100660.72;;;16.59;61.03
50702;BME280;36670;50.094;8.496;2022-09-01T05:37:35;100668.03;;;16.49;61.50
50702;BME280;36670;50.094;8.496;2022-09-01T05:40:08;100664.66;;;16.52;61.08
50702;BME280;36670;50.094;8.496;2022-09-01T05:42:34;100661.28;;;16.55;60.51
50702;BME280;36670;50.094;8.496;2022-09-01T05:45:03;100661.00;;;16.62;61.10
50702;BME280;36670;50.094;8.496;2022-09-01T05:47:29;100658.50;;;16.55;60.72
50702;BME280;36670;50.094;8.496;2022-09-01T05:49:54;100654.28;;;16.68;60.92
50702;BME280;36670;50.094;8.496;2022-09-01T05:52:20;100662.84;;;16.82;60.69
50702;BME280;36670;50.094;8.496;2022-09-01T05:54:49;100659.50;;;16.91;60.08
50702;BME280;36670;50.094;8.496;2022-09-01T05:57:16;100668.44;;;16.82;60.34
50702;BME280;36670;50.094;8.496;2022-09-01T05:59:42;100671.75;;;16.95;61.09
50702;BME280;36670;50.094;8.496;2022-09-01T06:02:07;100666.47;;;16.93;60.53
50702;BME280;36670;50.094;8.496;2022-09-01T06:04:33;100672.84;;;17.04;60.47
50702;BME280;36670;50.094;8.496;2022-09-01T06:07:00;100672.25;;;17.12;59.59
50702;BME280;36670;50.094;8.496;2022-09-01T06:09:26;100664.97;;;17.16;60.10
50702;BME280;36670;50.094;8.496;2022-09-01T06:11:51;100677.16;;;17.26;59.72
50702;BME280;36670;50.094;8.496;2022-09-01T06:14:19;100668.44;;;17.37;59.15
50702;BME280;36670;50.094;8.496;2022-09-01T06:16:45;100675.72;;;17.33;59.71
50702;BME280;36670;50.094;8.496;2022-09-01T06:19:11;100662.84;;;17.43;59.27
50702;BME280;36670;50.094;8.496;2022-09-01T06:21:40;100680.38;;;17.48;59.28
50702;BME280;36670;50.094;8.496;2022-09-01T06:24:05;100678.00;;;17.66;58.79
50702;BME280;36670;50.094;8.496;2022-09-01T06:26:33;100679.84;;;17.81;58.29
50702;BME280;36670;50.094;8.496;2022-09-01T06:29:05;100684.25;;;17.92;57.82
50702;BME280;36670;50.094;8.496;2022-09-01T06:31:34;100682.25;;;17.98;57.80
50702;BME280;36670;50.094;8.496;2022-09-01T06:34:06;100686.66;;;18.04;57.59
50702;BME280;36670;50.094;8.496;2022-09-01T06:36:35;100686.91;;;18.07;56.98
50702;BME280;36670;50.094;8.496;2022-09-01T06:39:02;100691.38;;;18.08;57.56
50702;BME280;36670;50.094;8.496;2022-09-01T06:41:27;100690.19;;;18.15;57.12
50702;BME280;36670;50.094;8.496;2022-09-01T06:43:53;100691.66;;;18.07;57.65
50702;BME280;36670;50.094;8.496;2022-09-01T06:46:20;100685.44;;;18.15;56.71
50702;BME280;36670;50.094;8.496;2022-09-01T06:48:46;100696.84;;;18.19;56.83
50702;BME280;36670;50.094;8.496;2022-09-01T06:51:17;100696.03;;;18.18;56.52
50702;BME280;36670;50.094;8.496;2022-09-01T06:53:45;100688.41;;;18.24;56.59
50702;BME280;36670;50.094;8.496;2022-09-01T06:56:16;100688.91;;;18.31;56.50
50702;BME280;36670;50.094;8.496;2022-09-01T06:58:44;100675.69;;;18.37;56.70
50702;BME280;36670;50.094;8.496;2022-09-01T07:01:14;100684.72;;;18.58;55.91
50702;BME280;36670;50.094;8.496;2022-09-01T07:03:41;100687.34;;;18.73;55.75
50702;BME280;36670;50.094;8.496;2022-09-01T07:06:08;100689.06;;;18.93;55.07
50702;BME280;36670;50.094;8.496;2022-09-01T07:08:34;100691.53;;;19.19;54.24
50702;BME280;36670;50.094;8.496;2022-09-01T07:11:04;100691.59;;;19.14;53.15
50702;BME280;36670;50.094;8.496;2022-09-01T07:13:31;100705.50;;;19.00;53.76
50702;BME280;36670;50.094;8.496;2022-09-01T07:15:58;100699.38;;;19.17;54.00
50702;BME280;36670;50.094;8.496;2022-09-01T07:18:24;100709.75;;;19.17;53.27
50702;BME280;36670;50.094;8.496;2022-09-01T07:20:51;100702.53;;;19.10;53.09
50702;BME280;36670;50.094;8.496;2022-09-01T07:23:18;100709.28;;;19.09;53.70
50702;BME280;36670;50.094;8.496;2022-09-01T07:25:46;100703.78;;;19.23;53.47
50702;BME280;36670;50.094;8.496;2022-09-01T07:28:14;100704.91;;;19.41;53.16
50702;BME280;36670;50.094;8.496;2022-09-01T07:30:46;100706.44;;;19.53;52.70
50702;BME280;36670;50.094;8.496;2022-09-01T07:33:16;100710.97;;;19.49;52.43
50702;BME280;36670;50.094;8.496;2022-09-01T07:35:45;100708.50;;;19.47;51.94
50702;BME280;36670;50.094;8.496;2022-09-01T07:38:11;100711.13;;;19.38;52.67
50702;BME280;36670;50.094;8.496;2022-09-01T07:40:39;100700.84;;;19.53;52.29
50702;BME280;36670;50.094;8.496;2022-09-01T07:43:07;100709.41;;;19.81;51.80
50702;BME280;36670;50.094;8.496;2022-09-01T07:45:36;100703.34;;;20.06;50.70
50702;BME280;36670;50.094;8.496;2022-09-01T07:48:05;100701.69;;;20.05;51.17
50702;BME280;36670;50.094;8.496;2022-09-01T07:50:33;100704.00;;;20.17;50.54
50702;BME280;36670;50.094;8.496;2022-09-01T07:52:59;100702.69;;;20.28;50.61
50702;BME280;36670;50.094;8.496;2022-09-01T07:55:25;100704.38;;;20.43;50.03
50702;BME280;36670;50.094;8.496;2022-09-01T07:57:52;100708.75;;;20.63;49.75
50702;BME280;36670;50.094;8.496;2022-09-01T08:00:17;100710.53;;;20.73;49.13
50702;BME280;36670;50.094;8.496;2022-09-01T08:02:43;100702.81;;;20.51;49.29
50702;BME280;36670;50.094;8.496;2022-09-01T08:05:13;100710.91;;;20.53;49.56
50702;BME280;36670;50.094;8.496;2022-09-01T08:07:40;100705.31;;;20.67;48.96
50702;BME280;36670;50.094;8.496;2022-09-01T08:10:07;100707.75;;;20.73;49.00
50702;BME280;36670;50.094;8.496;2022-09-01T08:12:32;100716.78;;;20.84;48.48
50702;BME280;36670;50.094;8.496;2022-09-01T08:14:59;100715.84;;;20.75;48.70
50702;BME280;36670;50.094;8.496;2022-09-01T08:17:25;100718.53;;;20.66;48.79
50702;BME280;36670;50.094;8.496;2022-09-01T08:19:50;100715.72;;;20.66;48.31
50702;BME280;36670;50.094;8.496;2022-09-01T08:22:17;100717.78;;;20.60;49.44
50702;BME280;36670;50.094;8.496;2022-09-01T08:24:47;100717.50;;;20.90;48.84
50702;BME280;36670;50.094;8.496;2022-09-01T08:27:12;100714.94;;;21.58;46.65
50702;BME280;36670;50.094;8.496;2022-09-01T08:29:38;100722.25;;;21.81;46.61
50702;BME280;36670;50.094;8.496;2022-09-01T08:32:03;100692.84;;;22.10;45.77
50702;BME280;36670;50.094;8.496;2022-09-01T08:34:31;100718.34;;;22.37;45.33
50702;BME280;36670;50.094;8.496;2022-09-01T08:36:56;100719.84;;;21.97;45.54
50702;BME280;36670;50.094;8.496;2022-09-01T08:39:22;100725.47;;;21.38;46.62
50702;BME280;36670;50.094;8.496;2022-09-01T08:42:22;100722.84;;;21.56;46.54
50702;BME280;36670;50.094;8.496;2022-09-01T08:47:08;100719.09;;;22.06;45.70
50702;BME280;36670;50.094;8.496;2022-09-01T08:49:36;100721.84;;;21.97;46.36
50702;BME280;36670;50.094;8.496;2022-09-01T08:52:12;100716.38;;;22.14;45.61
50702;BME280;36670;50.094;8.496;2022-09-01T08:57:23;100721.69;;;22.47;44.26
50702;BME280;36670;50.094;8.496;2022-09-01T08:59:50;100713.69;;;22.72;44.12
50702;BME280;36670;50.094;8.496;2022-09-01T09:02:42;100717.41;;;22.90;44.23
50702;BME280;36670;50.094;8.496;2022-09-01T09:05:29;100715.28;;;22.96;43.44
50702;BME280;36670;50.094;8.496;2022-09-01T09:08:23;100693.41;;;22.93;42.73
50702;BME280;36670;50.094;8.496;2022-09-01T09:11:12;100706.53;;;23.06;42.92
50702;BME280;36670;50.094;8.496;2022-09-01T09:16:16;100717.72;;;23.46;42.66
50702;BME280;36670;50.094;8.496;2022-09-01T09:19:00;100710.44;;;23.54;42.42
50702;BME280;36670;50.094;8.496;2022-09-01T09:21:32;100694.34;;;23.72;42.67
50702;BME280;36670;50.094;8.496;2022-09-01T09:24:23;100700.47;;;24.00;41.56
50702;BME280;36670;50.094;8.496;2022-09-01T09:26:52;100698.47;;;24.18;41.88
50702;BME280;36670;50.094;8.496;2022-09-01T09:29:18;100704.41;;;24.26;41.01
50702;BME280;36670;50.094;8.496;2022-09-01T09:31:45;100699.50;;;23.52;42.66
50702;BME280;36670;50.094;8.496;2022-09-01T09:34:28;100682.28;;;22.79;43.40
50702;BME280;36670;50.094;8.496;2022-09-01T09:36:59;100696.91;;;23.07;43.58
50702;BME280;36670;50.094;8.496;2022-09-01T09:39:25;100689.53;;;23.20;42.68
50702;BME280;36670;50.094;8.496;2022-09-01T09:42:04;100687.13;;;22.96;43.79
50702;BME280;36670;50.094;8.496;2022-09-01T09:44:37;100687.06;;;23.27;44.49
50702;BME280;36670;50.094;8.496;2022-09-01T09:47:05;100669.97;;;23.85;42.81
50702;BME280;36670;50.094;8.496;2022-09-01T09:49:32;100682.09;;;24.50;40.87
50702;BME280;36670;50.094;8.496;2022-09-01T09:54:30;100670.63;;;24.56;41.24
50702;BME280;36670;50.094;8.496;2022-09-01T09:57:09;100668.84;;;24.42;42.03
50702;BME280;36670;50.094;8.496;2022-09-01T09:59:41;100661.19;;;23.95;41.59
50702;BME280;36670;50.094;8.496;2022-09-01T10:02:23;100669.63;;;23.78;41.97
50702;BME280;36670;50.094;8.496;2022-09-01T10:04:51;100668.50;;;23.52;41.95
50702;BME280;36670;50.094;8.496;2022-09-01T10:07:25;100665.34;;;23.45;42.94
50702;BME280;36670;50.094;8.496;2022-09-01T10:09:52;100680.41;;;23.76;42.29
50702;BME280;36670;50.094;8.496;2022-09-01T10:12:19;100670.66;;;23.73;42.15
50702;BME280;36670;50.094;8.496;2022-09-01T10:15:08;100663.50;;;23.76;41.92
50702;BME280;36670;50.094;8.496;2022-09-01T10:17:38;100666.81;;;23.86;42.05
50702;BME280;36670;50.094;8.496;2022-09-01T10:20:08;100645.91;;;24.05;41.17
50702;BME280;36670;50.094;8.496;2022-09-01T10:22:37;100651.22;;;23.80;42.19
50702;BME280;36670;50.094;8.496;2022-09-01T10:25:05;100660.50;;;23.90;41.17
50702;BME280;36670;50.094;8.496;2022-09-01T10:27:36;100654.38;;;24.05;41.27
50702;BME280;36670;50.094;8.496;2022-09-01T10:30:11;100658.22;;;23.92;40.89
50702;BME280;36670;50.094;8.496;2022-09-01T10:35:42;100647.06;;;24.04;40.70
50702;BME280;36670;50.094;8.496;2022-09-01T10:38:14;100658.66;;;24.11;40.38
50702;BME280;36670;50.094;8.496;2022-09-01T10:40:42;100643.31;;;24.30;40.49
50702;BME280;36670;50.094;8.496;2022-09-01T10:43:39;100643.88;;;24.62;40.90
50702;BME280;36670;50.094;8.496;2022-09-01T10:48:51;100642.25;;;24.61;39.54
50702;BME280;36670;50.094;8.496;2022-09-01T10:54:00;100633.31;;;24.41;41.01
50702;BME280;36670;50.094;8.496;2022-09-01T10:56:40;100625.47;;;24.56;40.60
50702;BME280;36670;50.094;8.496;2022-09-01T10:59:26;100628.72;;;24.75;39.26
50702;BME280;36670;50.094;8.496;2022-09-01T11:09:38;100616.44;;;25.43;39.79
50702;BME280;36670;50.094;8.496;2022-09-01T11:12:15;100593.16;;;25.92;38.85
50702;BME280;36670;50.094;8.496;2022-09-01T11:17:54;100616.19;;;27.27;35.18
50702;BME280;36670;50.094;8.496;2022-09-01T11:20:35;100614.88;;;27.36;36.26
50702;BME280;36670;50.094;8.496;2022-09-01T11:25:53;100602.56;;;26.79;34.54
50702;BME280;36670;50.094;8.496;2022-09-01T11:30:59;100595.34;;;26.08;34.84
50702;BME280;36670;50.094;8.496;2022-09-01T11:36:21;100597.28;;;25.95;35.26
50702;BME280;36670;50.094;8.496;2022-09-01T11:38:57;100607.84;;;25.73;36.60
50702;BME280;36670;50.094;8.496;2022-09-01T11:41:29;100605.03;;;25.85;35.47
50702;BME280;36670;50.094;8.496;2022-09-01T11:43:59;100592.91;;;25.85;35.99
50702;BME280;36670;50.094;8.496;2022-09-01T11:46:31;100586.94;;;25.99;35.82
50702;BME280;36670;50.094;8.496;2022-09-01T11:49:22;100590.22;;;25.55;36.63
50702;BME280;36670;50.094;8.496;2022-09-01T11:51:50;100586.66;;;25.79;35.71
50702;BME280;36670;50.094;8.496;2022-09-01T11:54:15;100590.50;;;26.08;34.83
50702;BME280;36670;50.094;8.496;2022-09-01T11:56:41;100569.91;;;26.32;35.29
50702;BME280;36670;50.094;8.496;2022-09-01T11:59:06;100581.47;;;26.39;34.51
50702;BME280;36670;50.094;8.496;2022-09-01T12:01:35;100582.44;;;25.98;35.28
50702;BME280;36670;50.094;8.496;2022-09-01T12:04:22;100588.63;;;25.79;35.51
50702;BME280;36670;50.094;8.496;2022-09-01T12:06:55;100572.88;;;25.44;34.98
50702;BME280;36670;50.094;8.496;2022-09-01T12:09:30;100578.81;;;25.30;35.82
50702;BME280;36670;50.094;8.496;2022-09-01T12:11:56;100579.59;;;25.52;35.20
50702;BME280;36670;50.094;8.496;2022-09-01T12:14:21;100568.84;;;25.45;35.91
50702;BME280;36670;50.094;8.496;2022-09-01T12:16:58;100566.59;;;25.38;36.12
50702;BME280;36670;50.094;8.496;2022-09-01T12:19:28;100554.13;;;25.85;34.79
50702;BME280;36670;50.094;8.496;2022-09-01T12:22:00;100557.41;;;26.33;33.98
50702;BME280;36670;50.094;8.496;2022-09-01T12:24:27;100554.44;;;26.67;34.23
50702;BME280;36670;50.094;8.496;2022-09-01T12:26:54;100545.44;;;26.89;34.42
50702;BME280;36670;50.094;8.496;2022-09-01T12:29:22;100541.44;;;26.66;33.64
50702;BME280;36670;50.094;8.496;2022-09-01T12:31:48;100544.63;;;26.64;33.68
50702;BME280;36670;50.094;8.496;2022-09-01T12:37:03;100551.19;;;25.94;34.72
50702;BME280;36670;50.094;8.496;2022-09-01T12:39:34;100542.09;;;25.64;34.63
50702;BME280;36670;50.094;8.496;2022-09-01T12:42:25;100542.72;;;25.82;34.84
50702;BME280;36670;50.094;8.496;2022-09-01T12:49:58;100525.75;;;26.81;34.10
50702;BME280;36670;50.094;8.496;2022-09-01T12:52:25;100523.47;;;26.99;33.92
50702;BME280;36670;50.094;8.496;2022-09-01T12:57:37;100527.13;;;26.99;33.10
50702;BME280;36670;50.094;8.496;2022-09-01T13:02:41;100520.50;;;27.36;33.73
50702;BME280;36670;50.094;8.496;2022-09-01T13:05:27;100511.16;;;27.35;31.95
50702;BME280;36670;50.094;8.496;2022-09-01T13:07:58;100517.59;;;27.20;33.04
50702;BME280;36670;50.094;8.496;2022-09-01T13:10:26;100519.94;;;27.18;31.95
50702;BME280;36670;50.094;8.496;2022-09-01T13:12:53;100514.56;;;27.41;31.90
50702;BME280;36670;50.094;8.496;2022-09-01T13:15:18;100517.28;;;27.66;32.13
50702;BME280;36670;50.094;8.496;2022-09-01T13:17:44;100504.47;;;27.88;31.51
50702;BME280;36670;50.094;8.496;2022-09-01T13:20:10;100497.41;;;27.82;31.80
50702;BME280;36670;50.094;8.496;2022-09-01T13:22:37;100495.75;;;27.81;32.33
50702;BME280;36670;50.094;8.496;2022-09-01T13:25:03;100491.94;;;27.73;32.16
50702;BME280;36670;50.094;8.496;2022-09-01T13:27:29;100495.38;;;27.50;32.31
50702;BME280;36670;50.094;8.496;2022-09-01T13:29:54;100492.16;;;27.23;32.40
50702;BME280;36670;50.094;8.496;2022-09-01T13:32:21;100488.31;;;27.44;32.18
50702;BME280;36670;50.094;8.496;2022-09-01T13:34:49;100486.44;;;27.80;31.12
50702;BME280;36670;50.094;8.496;2022-09-01T13:37:14;100491.38;;;27.83;31.44
50702;BME280;36670;50.094;8.496;2022-09-01T13:39:40;100489.91;;;27.89;31.08
50702;BME280;36670;50.094;8.496;2022-09-01T13:42:05;100492.94;;;27.65;31.99
50702;BME280;36670;50.094;8.496;2022-09-01T13:44:31;100491.25;;;27.48;32.38
50702;BME280;36670;50.094;8.496;2022-09-01T13:46:57;100492.25;;;27.39;31.35
50702;BME280;36670;50.094;8.496;2022-09-01T13:49:22;100491.09;;;27.28;32.04
50702;BME280;36670;50.094;8.496;2022-09-01T13:51:51;100489.69;;;27.22;32.33
50702;BME280;36670;50.094;8.496;2022-09-01T13:54:18;100489.13;;;27.16;32.10
50702;BME280;36670;50.094;8.496;2022-09-01T13:56:43;100487.53;;;27.31;31.62